Aérodrome :
LOGIN :

S'inscrire | Disclaimer

   EN    FR    IT 

 










Légende :    VFR   VFR Marginal   IFR   IFR Intensif   IFR Très Intensif
Visi : 
Plafond : 
>= 8 km
>= 3000ft
5 à 8 km
1000 à 3000 ft
1500m à 5 km
500 à 1000 ft
800 à 1500m
200 à 500 ft
< 800m
< 200 ft
Symboles :   Orages  Brouillard  Fortes neiges  Fortes précipitations  Vent > 20 kt
SIGMETs :   Divers  Orages  Givrage  Turbulence  Onde Orograph.  Cendres Volcan.







- Altitude de l'aérodrome : 17 ft
- Code IATA : CPH


EKCH - København - Kastrup (Copenhagen)

DERNIER METAR :
  • 201420Z AUTO 36010KT 330V110 9999 NCD 21/15 Q1007 NOSIG

METARs EXPIRÉS :
  • 201350Z AUTO 36009KT 9999 NCD 20/14 Q1007 NOSIG
  • 201320Z AUTO 36008KT 330V030 9999 NCD 20/14 Q1007 BECMG BKN008
  • 201250Z AUTO 01007KT 340V040 9999 NCD 19/14 Q1007 BECMG BKN008
  • 201220Z AUTO 02007KT 9999 NCD 19/15 Q1008 BECMG BKN008
  • 201150Z AUTO 03007KT 9999 NCD 18/14 Q1008 BECMG BKN008
  • 201120Z 03008KT 360V060 9999 FEW006 BKN250 17/14 Q1008 NOSIG

TAF TAF EKCH
Valide du 20 à 12h jusqu'au 21 à 12h UTC


201056Z 2012/2112 03008KT 9999 SCT020
TEMPO 2022/2105 2000 SHRA TSRA BR BKN004 SCT040CB
BECMG 2105/2107 3000 BR BKN005
BECMG 2107/2109 9999 NSW BKN010
BECMG 2109/2111 SCT020
Pas de NOTAMs connus pour ce terrain.



MET'MAP, la Météo Aéronautique d'un coup d'oeil ! - Copyright ORBIFLY Décembre 2007 - Disclaimer

ORBIFLY MET'MAP TEAM :

Programmation & Développement : Alexandra Zaïnal
Conception & Développement : Baudouin d'Aumeries
Co-Programmation & Développement : Marc-Olivier Méhu
Soutien technique & logistique : Manuel Goepfert

Contact : metmap@orbifly.com




SOURCES & CREDITS :

   NOAA